| time (UTC) | temp C | wind direction | speed KPH | gust KPH | rain 1hr cm | rain 24hr cm | rain mn cm | humidity % | barometer mb |
| 20260906123016 | 22 | 97 | 0.0 | 0.0 | 0.03 | 0.43 | 0.00 | 96 | 1013.7 |
| 20260906121503 | 22 | 122 | 0.0 | 0.0 | 0.03 | 0.43 | 0.43 | 97 | 1013.6 |
| 20260906120050 | 21 | 122 | 0.0 | 0.0 | 0.03 | 0.43 | 0.43 | 97 | 1013.6 |
| 20260906114546 | 20 | 124 | 0.0 | 0.0 | 0.00 | 0.41 | 0.41 | 97 | 1013.1 |
| 20260906113031 | 20 | 124 | 0.0 | 0.0 | 0.00 | 0.41 | 0.41 | 96 | 1013.0 |
| 20260906111529 | 20 | 123 | 0.0 | 0.0 | 0.00 | 0.41 | 0.41 | 96 | 1012.9 |
| 20260906110008 | 20 | 124 | 0.0 | 0.0 | 0.00 | 0.41 | 0.41 | 96 | 1012.9 |
| 20260906104507 | 21 | 124 | 0.0 | 0.0 | 0.00 | 0.41 | 0.41 | 96 | 1012.6 |
| 20260906103004 | 21 | 1 | 0.0 | 0.0 | 0.00 | 0.41 | 0.41 | 96 | 1012.6 |
| 20260906101507 | 21 | 126 | 0.0 | 0.0 | 0.00 | 0.41 | 0.41 | 96 | 1012.7 |
| 20260906100045 | 21 | 126 | 0.0 | 0.0 | 0.00 | 0.41 | 0.41 | 95 | 1012.6 |
| 20260906094544 | 21 | 126 | 0.0 | 0.0 | 0.00 | 0.41 | 0.41 | 96 | 1012.8 |
| 20260906093036 | 21 | 148 | 0.0 | 0.0 | 0.00 | 0.41 | 0.41 | 95 | 1012.7 |
| 20260906091524 | 21 | 148 | 0.0 | 0.0 | 0.00 | 0.41 | 0.41 | 95 | 1012.5 |
| 20260906090017 | 21 | 148 | 0.0 | 0.0 | 0.00 | 0.41 | 0.41 | 95 | 1012.4 |
| 20260906084505 | 22 | 148 | 0.0 | 0.0 | 0.00 | 0.41 | 0.41 | 94 | 1012.1 |
| 20260906083047 | 22 | 148 | 0.0 | 0.0 | 0.00 | 0.41 | 0.41 | 94 | 1012.3 |
| 20260906081552 | 22 | 146 | 0.0 | 1.6 | 0.00 | 0.41 | 0.41 | 94 | 1012.3 |
| 20260906080027 | 22 | 155 | 0.0 | 3.2 | 0.00 | 0.41 | 0.41 | 93 | 1012.3 |
| 20260906074528 | 22 | 111 | 0.0 | 3.2 | 0.00 | 0.41 | 0.41 | 93 | 1012.4 |
| 20260906073009 | 22 | 150 | 0.0 | 3.2 | 0.00 | 0.41 | 0.41 | 94 | 1012.4 |
| 20260906071610 | 22 | 82 | 0.0 | 3.2 | 0.00 | 0.41 | 0.41 | 94 | 1012.6 |
| 20260906070057 | 22 | 144 | 0.0 | 1.6 | 0.00 | 0.41 | 0.41 | 94 | 1012.5 |
| 20260906064556 | 22 | 146 | 0.0 | 0.0 | 0.00 | 0.41 | 0.41 | 94 | 1012.3 |
| 20260906063056 | 22 | 208 | 0.0 | 3.2 | 0.00 | 0.41 | 0.41 | 94 | 1012.5 |
| 20260906061555 | 22 | 200 | 0.0 | 3.2 | 0.00 | 0.41 | 0.41 | 94 | 1012.9 |
| 20260906060054 | 22 | 202 | 0.0 | 1.6 | 0.00 | 0.41 | 0.41 | 94 | 1012.8 |
| 20260906054554 | 22 | 201 | 0.0 | 0.0 | 0.00 | 0.41 | 0.41 | 94 | 1013.2 |
| 20260906053053 | 22 | 199 | 0.0 | 4.8 | 0.00 | 0.41 | 0.41 | 93 | 1013.4 |
| 20260906051602 | 22 | 230 | 4.8 | 8.0 | 0.28 | 0.41 | 0.41 | 93 | 1014.0 |
| 20260906050105 | 22 | 215 | 1.6 | 6.4 | 0.41 | 0.41 | 0.41 | 92 | 1014.2 |
| 20260906044541 | 23 | 63 | 1.6 | 6.4 | 0.41 | 0.41 | 0.41 | 91 | 1013.7 |
| 20260906043046 | 23 | 247 | 0.0 | 4.8 | 0.41 | 0.41 | 0.41 | 88 | 1014.0 |
| 20260906041518 | 25 | 28 | 1.6 | 6.4 | 0.10 | 0.10 | 0.10 | 82 | 1014.0 |
| 20260906040030 | 25 | 309 | 1.6 | 12.9 | 0.00 | 0.00 | 0.00 | 79 | 1013.6 |
| 20260906034505 | 23 | 31 | 9.7 | 20.9 | 0.00 | 0.00 | 0.00 | 87 | 1013.7 |
| 20260906033005 | 23 | 50 | 0.0 | 0.0 | 0.00 | 0.00 | 0.00 | 87 | 1013.1 |
| 20260906031504 | 23 | 41 | 0.0 | 0.0 | 0.00 | 0.00 | 0.00 | 87 | 1012.5 |
| 20260906030004 | 23 | 39 | 0.0 | 0.0 | 0.00 | 0.00 | 0.00 | 86 | 1012.6 |
| 20260906024503 | 23 | 49 | 0.0 | 0.0 | 0.00 | 0.00 | 0.00 | 86 | 1012.5 |
| 20260906023003 | 23 | 31 | 0.0 | 0.0 | 0.00 | 0.00 | 0.00 | 85 | 1012.2 |
| 20260906021503 | 23 | 37 | 0.0 | 0.0 | 0.00 | 0.00 | 0.00 | 85 | 1012.0 |
| 20260906020002 | 23 | 11 | 0.0 | 0.0 | 0.00 | 0.00 | 0.00 | 83 | 1011.8 |
| 20260906014544 | 24 | 44 | 0.0 | 0.0 | 0.00 | 0.00 | 0.00 | 80 | 1011.6 |
| 20260906013101 | 25 | 44 | 0.0 | 0.0 | 0.00 | 0.00 | 0.00 | 77 | 1011.4 |
| 20260906011526 | 25 | 70 | 0.0 | 6.4 | 0.00 | 0.00 | 0.00 | 74 | 1011.5 |
| 20260906010029 | 25 | 224 | 0.0 | 1.6 | 0.00 | 0.00 | 0.00 | 73 | 1011.7 |
| 20260906004507 | 26 | 164 | 0.0 | 3.2 | 0.00 | 0.00 | 0.00 | 72 | 1011.7 |
| 20260906003007 | 27 | 232 | 1.6 | 12.9 | 0.00 | 0.00 | 0.00 | 69 | 1012.1 |
| 20260906001549 | 29 | 310 | 4.8 | 20.9 | 0.00 | 0.00 | 0.00 | 63 | 1012.4 |
| 20260906000058 | 31 | 286 | 0.0 | 3.2 | 0.00 | 0.00 | 0.00 | 62 | 1011.8 |
| 20260905234530 | 31 | 160 | 0.0 | 3.2 | 0.00 | 0.00 | 0.00 | 59 | 1011.3 |
| 20260905233039 | 32 | 124 | 1.6 | 6.4 | 0.00 | 0.00 | 0.00 | 58 | 1011.2 |
| 20260905231522 | 32 | 146 | 1.6 | 9.7 | 0.00 | 0.00 | 0.00 | 55 | 1011.0 |
| 20260905230019 | 33 | 128 | 3.2 | 6.4 | 0.00 | 0.00 | 0.00 | 53 | 1010.9 |
| 20260905224553 | 34 | 120 | 3.2 | 6.4 | 0.00 | 0.00 | 0.00 | 50 | 1011.1 |
| 20260905223053 | 34 | 81 | 1.6 | 6.4 | 0.00 | 0.00 | 0.00 | 50 | 1011.2 |
| 20260905221533 | 34 | 135 | 3.2 | 9.7 | 0.00 | 0.00 | 0.00 | 50 | 1011.2 |
| 20260905220033 | 33 | 77 | 4.8 | 9.7 | 0.00 | 0.00 | 0.00 | 50 | 1011.3 |
| 20260905214515 | 33 | 72 | 8.0 | 11.3 | 0.00 | 0.00 | 0.00 | 52 | 1011.4 |
| 20260905213014 | 33 | 95 | 1.6 | 9.7 | 0.00 | 0.00 | 0.00 | 53 | 1011.4 |
| 20260905211553 | 33 | 37 | 6.4 | 14.5 | 0.00 | 0.00 | 0.00 | 53 | 1011.6 |
| 20260905210104 | 33 | 43 | 8.0 | 14.5 | 0.00 | 0.00 | 0.00 | 52 | 1011.5 |
| 20260905204536 | 32 | 257 | 0.0 | 6.4 | 0.00 | 0.00 | 0.00 | 54 | 1011.5 |
| 20260905203037 | 32 | 87 | 4.8 | 9.7 | 0.00 | 0.00 | 0.00 | 57 | 1011.8 |
| 20260905201514 | 32 | 41 | 6.4 | 12.9 | 0.00 | 0.00 | 0.00 | 62 | 1012.1 |
| 20260905200017 | 32 | 65 | 4.8 | 12.9 | 0.00 | 0.00 | 0.00 | 63 | 1012.2 |
| 20260905194554 | 34 | 59 | 6.4 | 19.3 | 0.00 | 0.00 | 0.00 | 53 | 1012.2 |
| 20260905193053 | 37 | 31 | 8.0 | 12.9 | 0.00 | 0.00 | 0.00 | 45 | 1012.3 |
| 20260905191536 | 36 | 152 | 1.6 | 9.7 | 0.00 | 0.00 | 0.00 | 45 | 1012.5 |
| 20260905190031 | 36 | 298 | 4.8 | 14.5 | 0.00 | 0.00 | 0.00 | 48 | 1012.6 |
| 20260905184520 | 36 | 240 | 4.8 | 11.3 | 0.00 | 0.00 | 0.00 | 49 | 1012.7 |
| 20260905183015 | 36 | 212 | 1.6 | 8.0 | 0.00 | 0.00 | 0.00 | 48 | 1012.9 |
| 20260905181516 | 36 | 179 | 3.2 | 8.0 | 0.00 | 0.00 | 0.00 | 50 | 1013.1 |
| 20260905180008 | 35 | 278 | 3.2 | 9.7 | 0.00 | 0.00 | 0.00 | 50 | 1013.4 |
| 20260905174515 | 35 | 232 | 3.2 | 9.7 | 0.00 | 0.00 | 0.00 | 52 | 1013.5 |
| 20260905173002 | 35 | 9 | 4.8 | 11.3 | 0.00 | 0.00 | 0.00 | 53 | 1013.6 |
| 20260905171634 | 35 | 219 | 1.6 | 11.3 | 0.00 | 0.00 | 0.00 | 54 | 1013.8 |
| 20260905170104 | 34 | 318 | 3.2 | 14.5 | 0.00 | 0.00 | 0.00 | 55 | 1014.0 |
| 20260905164543 | 34 | 160 | 4.8 | 12.9 | 0.00 | 0.00 | 0.00 | 57 | 1014.3 |
| 20260905163036 | 33 | 101 | 6.4 | 11.3 | 0.00 | 0.00 | 0.00 | 59 | 1014.4 |
| 20260905161511 | 33 | 251 | 0.0 | 4.8 | 0.00 | 0.00 | 0.00 | 60 | 1014.5 |
| 20260905160007 | 32 | 256 | 1.6 | 6.4 | 0.00 | 0.00 | 0.00 | 62 | 1014.6 |
| 20260905154601 | 31 | 62 | 1.6 | 3.2 | 0.00 | 0.00 | 0.00 | 69 | 1014.9 |
| 20260905153041 | 30 | 58 | 0.0 | 8.0 | 0.00 | 0.00 | 0.00 | 75 | 1015.0 |
| 20260905151520 | 28 | 7 | 0.0 | 0.0 | 0.00 | 0.00 | 0.00 | 78 | 1015.1 |
| 20260905150024 | 28 | 25 | 0.0 | 0.0 | 0.00 | 0.00 | 0.00 | 79 | 1015.1 |
| 20260905144557 | 27 | 34 | 0.0 | 0.0 | 0.00 | 0.00 | 0.00 | 81 | 1015.2 |
| 20260905143103 | 27 | 32 | 0.0 | 0.0 | 0.00 | 0.00 | 0.00 | 82 | 1015.3 |
| 20260905141537 | 27 | 32 | 0.0 | 0.0 | 0.00 | 0.00 | 0.00 | 82 | 1015.1 |
| 20260905140036 | 27 | 28 | 0.0 | 0.0 | 0.00 | 0.00 | 0.00 | 83 | 1015.2 |
| 20260905134516 | 26 | 23 | 0.0 | 0.0 | 0.00 | 0.00 | 0.00 | 85 | 1015.1 |
| 20260905133010 | 25 | 30 | 0.0 | 0.0 | 0.00 | 0.00 | 0.00 | 87 | 1015.3 |
| 20260905131548 | 24 | 36 | 0.0 | 0.0 | 0.00 | 0.00 | 0.00 | 90 | 1015.4 |
| 20260905130049 | 23 | 36 | 0.0 | 0.0 | 0.00 | 0.00 | 0.00 | 91 | 1015.4 |
| 20260905124526 | 23 | 36 | 0.0 | 0.0 | 0.00 | 0.00 | 0.00 | 93 | 1015.5 |